createdAt,value
2019-04-27T00:01:35.008Z,14.39
2019-04-27T00:04:27.001Z,14.37
2019-04-27T00:07:00.946Z,14.34
2019-04-27T00:09:50.080Z,14.32
2019-04-27T00:12:16.431Z,14.28
2019-04-27T00:14:48.427Z,14.26
2019-04-27T00:17:44.947Z,14.21
2019-04-27T00:20:21.418Z,14.18
2019-04-27T00:22:54.524Z,14.16
2019-04-27T00:25:26.917Z,14.09
2019-04-27T00:27:56.031Z,14.07
2019-04-27T00:30:25.959Z,14.06
2019-04-27T00:32:55.842Z,14.02
2019-04-27T00:35:35.167Z,13.97
2019-04-27T00:38:18.593Z,13.93
2019-04-27T00:40:53.757Z,13.86
2019-04-27T00:43:25.227Z,13.84
2019-04-27T00:45:55.366Z,13.83
2019-04-27T00:48:25.216Z,13.83
2019-04-27T00:50:55.095Z,13.82
2019-04-27T00:53:25.417Z,13.78
2019-04-27T00:56:20.571Z,13.81
2019-04-27T00:59:21.603Z,13.80
2019-04-27T01:02:04.138Z,13.73
2019-04-27T01:04:34.180Z,13.71
2019-04-27T01:07:04.310Z,13.71
2019-04-27T01:09:34.417Z,13.67
2019-04-27T01:12:04.930Z,13.64
2019-04-27T01:14:34.773Z,13.64
2019-04-27T01:17:04.860Z,13.64
2019-04-27T01:19:34.806Z,13.64
2019-04-27T01:22:05.013Z,13.67
2019-04-27T01:24:34.941Z,13.68
2019-04-27T01:27:15.283Z,13.67
2019-04-27T01:29:45.404Z,13.68
2019-04-27T01:32:16.447Z,13.69
2019-04-27T01:34:46.413Z,13.68
2019-04-27T01:37:16.669Z,13.69
2019-04-27T01:39:46.463Z,13.68
2019-04-27T01:42:19.367Z,13.63
2019-04-27T01:44:51.074Z,13.63
2019-04-27T01:47:22.302Z,13.63
2019-04-27T01:49:52.245Z,13.63
2019-04-27T01:52:22.230Z,13.61
2019-04-27T01:54:52.128Z,13.60
2019-04-27T01:57:21.997Z,13.57
2019-04-27T01:59:51.876Z,13.53
2019-04-27T02:02:46.439Z,13.43
2019-04-27T02:05:35.730Z,13.39
2019-04-27T02:08:06.160Z,13.37
2019-04-27T02:10:37.048Z,13.37
2019-04-27T02:13:08.798Z,13.33
2019-04-27T02:15:39.555Z,13.31
2019-04-27T02:18:09.635Z,13.27
2019-04-27T02:20:39.584Z,13.25
2019-04-27T02:23:09.527Z,13.22
2019-04-27T02:25:41.524Z,13.21
2019-04-27T02:28:39.781Z,13.16
2019-04-27T02:31:46.853Z,13.17
2019-04-27T02:34:20.134Z,13.13
2019-04-27T02:36:50.517Z,13.09
2019-04-27T02:39:21.685Z,13.10
2019-04-27T02:41:52.175Z,13.13
2019-04-27T02:44:37.015Z,13.14
2019-04-27T02:47:07.253Z,13.19
2019-04-27T02:49:37.461Z,13.22
2019-04-27T02:52:26.756Z,13.22
2019-04-27T02:54:59.118Z,13.26
2019-04-27T02:57:30.215Z,13.32
2019-04-27T03:00:00.423Z,13.31
2019-04-27T03:02:40.209Z,13.33
2019-04-27T03:05:13.039Z,13.34
2019-04-27T03:07:42.846Z,13.35
2019-04-27T03:10:12.934Z,13.36
2019-04-27T03:12:47.208Z,13.38
2019-04-27T03:15:25.402Z,13.40
2019-04-27T03:18:09.891Z,13.41
2019-04-27T03:20:53.493Z,13.43
2019-04-27T03:23:23.433Z,13.47
2019-04-27T03:26:04.375Z,13.47
2019-04-27T03:28:34.430Z,13.48
2019-04-27T03:31:04.401Z,13.47
2019-04-27T03:33:35.144Z,13.43
2019-04-27T03:36:05.438Z,13.40
2019-04-27T03:38:35.619Z,13.38
2019-04-27T03:41:05.564Z,13.37
2019-04-27T03:43:35.610Z,13.36
2019-04-27T03:46:05.555Z,13.33
2019-04-27T03:48:35.797Z,13.29
2019-04-27T03:51:21.130Z,13.27
2019-04-27T03:54:10.743Z,13.27
2019-04-27T03:56:44.338Z,13.27
2019-04-27T03:59:52.100Z,13.27
2019-04-27T04:02:22.386Z,13.30
2019-04-27T04:04:52.325Z,13.30
2019-04-27T04:07:22.260Z,13.30
2019-04-27T04:09:52.219Z,13.30
2019-04-27T04:12:31.206Z,13.28
2019-04-27T04:15:01.480Z,13.27
2019-04-27T04:17:31.482Z,13.27
2019-04-27T04:20:02.534Z,13.27
2019-04-27T04:22:32.752Z,13.25
2019-04-27T04:25:02.676Z,13.25
2019-04-27T04:27:32.627Z,13.25
2019-04-27T04:30:02.792Z,13.25
2019-04-27T04:32:33.738Z,13.22
2019-04-27T04:35:21.663Z,13.21
2019-04-27T04:37:53.254Z,13.20
2019-04-27T04:40:30.911Z,13.21
2019-04-27T04:43:06.888Z,13.22
2019-04-27T04:45:59.479Z,13.22
2019-04-27T04:48:30.187Z,13.20
2019-04-27T04:51:00.301Z,13.21
2019-04-27T04:53:31.206Z,13.23
2019-04-27T04:56:01.148Z,13.24
2019-04-27T04:58:31.485Z,13.25
2019-04-27T05:01:01.999Z,13.26
2019-04-27T05:03:32.034Z,13.28
2019-04-27T05:06:02.013Z,13.29
2019-04-27T05:08:31.948Z,13.31
2019-04-27T05:11:01.822Z,13.33
2019-04-27T05:13:31.730Z,13.35
2019-04-27T05:16:01.597Z,13.36
2019-04-27T05:18:31.522Z,13.41
2019-04-27T05:21:08.681Z,13.45
2019-04-27T05:23:38.990Z,13.48
2019-04-27T05:26:09.250Z,13.51
2019-04-27T05:28:40.851Z,13.53
2019-04-27T05:31:10.920Z,13.53
2019-04-27T05:33:40.899Z,13.56
2019-04-27T05:36:11.027Z,13.60
2019-04-27T05:38:45.869Z,13.63
2019-04-27T05:41:14.475Z,13.64
2019-04-27T05:44:07.559Z,13.66
2019-04-27T05:46:52.787Z,13.65
2019-04-27T05:49:31.381Z,13.67
2019-04-27T05:52:01.345Z,13.71
2019-04-27T05:54:31.229Z,13.73
2019-04-27T05:57:01.199Z,13.77
2019-04-27T05:59:31.461Z,13.77
2019-04-27T06:02:01.882Z,13.76
2019-04-27T06:04:32.353Z,13.75
2019-04-27T06:07:02.464Z,13.69
2019-04-27T06:09:32.302Z,13.68
2019-04-27T06:12:02.401Z,13.66
2019-04-27T06:14:33.189Z,13.63
2019-04-27T06:17:03.390Z,13.60
2019-04-27T06:19:33.637Z,13.55
2019-04-27T06:22:03.578Z,13.54
2019-04-27T06:24:33.856Z,13.51
2019-04-27T06:27:04.100Z,13.49
2019-04-27T06:29:34.027Z,13.47
2019-04-27T06:32:04.292Z,13.46
2019-04-27T06:34:34.232Z,13.45
2019-04-27T06:37:04.374Z,13.47
2019-04-27T06:39:34.241Z,13.46
2019-04-27T06:42:16.070Z,13.46
2019-04-27T06:44:35.927Z,13.48
2019-04-27T06:47:05.930Z,13.47
2019-04-27T06:49:35.808Z,13.48
2019-04-27T06:52:08.574Z,13.52
2019-04-27T06:54:38.973Z,13.52
2019-04-27T06:57:09.259Z,13.52
2019-04-27T06:59:40.133Z,13.54
2019-04-27T07:02:10.081Z,13.55
2019-04-27T07:04:39.998Z,13.58
2019-04-27T07:07:10.836Z,13.57
2019-04-27T07:09:40.700Z,13.56
2019-04-27T07:12:10.647Z,13.57
2019-04-27T07:14:52.202Z,13.59
2019-04-27T07:17:12.441Z,13.63
2019-04-27T07:19:42.684Z,13.62
2019-04-27T07:22:12.557Z,13.64
2019-04-27T07:24:42.506Z,13.66
2019-04-27T07:27:12.491Z,13.65
2019-04-27T07:29:44.577Z,13.65
2019-04-27T07:32:14.636Z,13.67
2019-04-27T07:34:46.725Z,13.67
2019-04-27T07:37:17.073Z,13.64
2019-04-27T07:39:47.028Z,13.62
2019-04-27T07:42:17.348Z,13.58
2019-04-27T07:44:52.062Z,13.58
2019-04-27T07:47:23.839Z,13.57
2019-04-27T07:49:53.801Z,13.56
2019-04-27T07:52:23.730Z,13.56
2019-04-27T07:54:53.875Z,13.59
2019-04-27T07:57:23.835Z,13.61
2019-04-27T07:59:53.697Z,13.62
2019-04-27T08:02:23.644Z,13.64
2019-04-27T08:04:54.017Z,13.67
2019-04-27T08:07:24.644Z,13.71
2019-04-27T08:09:54.556Z,13.73
2019-04-27T08:12:24.655Z,13.77
2019-04-27T08:14:54.622Z,13.78
2019-04-27T08:17:24.800Z,13.78
2019-04-27T08:19:54.754Z,13.77
2019-04-27T08:22:24.630Z,13.80
2019-04-27T08:24:54.420Z,13.79
2019-04-27T08:27:29.938Z,13.80
2019-04-27T08:30:13.343Z,13.81
2019-04-27T08:32:45.538Z,13.76
2019-04-27T08:35:15.606Z,13.75
2019-04-27T08:37:45.507Z,13.77
2019-04-27T08:40:15.777Z,13.76
2019-04-27T08:42:45.654Z,13.77
2019-04-27T08:45:15.868Z,13.79
2019-04-27T08:47:45.847Z,13.74
2019-04-27T08:50:16.774Z,13.77
2019-04-27T08:52:46.589Z,13.78
2019-04-27T08:55:16.567Z,13.85
2019-04-27T08:57:46.514Z,13.87
2019-04-27T09:00:19.177Z,13.87
2019-04-27T09:02:50.283Z,13.88
2019-04-27T09:05:28.682Z,13.89
2019-04-27T09:08:23.746Z,13.90
2019-04-27T09:11:25.353Z,13.89
2019-04-27T09:14:14.145Z,13.91
2019-04-27T09:17:02.283Z,13.96
2019-04-27T09:19:54.554Z,13.98
2019-04-27T09:22:24.540Z,14.00
2019-04-27T09:24:54.454Z,14.02
2019-04-27T09:27:24.458Z,14.03
2019-04-27T09:29:54.464Z,14.04
2019-04-27T09:32:24.736Z,14.04
2019-04-27T09:34:56.950Z,14.04
2019-04-27T09:37:27.461Z,14.04
2019-04-27T09:39:57.415Z,14.04
2019-04-27T09:42:27.409Z,14.05
2019-04-27T09:44:57.634Z,14.06
2019-04-27T09:47:27.529Z,13.92
2019-04-27T09:49:57.802Z,13.43
2019-04-27T09:52:28.660Z,13.00
2019-04-27T09:54:58.760Z,12.53
2019-04-27T09:57:28.714Z,12.25
2019-04-27T09:59:59.285Z,11.88
2019-04-27T10:02:29.536Z,11.67
2019-04-27T10:04:59.465Z,11.63
2019-04-27T10:07:29.604Z,11.52
2019-04-27T10:09:59.878Z,11.57
2019-04-27T10:12:29.989Z,11.51
2019-04-27T10:15:01.054Z,11.45
2019-04-27T10:17:32.398Z,11.37
2019-04-27T10:20:03.147Z,11.47
2019-04-27T10:22:41.263Z,11.58
2019-04-27T10:25:07.059Z,11.72
2019-04-27T10:27:37.058Z,11.81
2019-04-27T10:30:08.880Z,11.90
2019-04-27T10:32:38.986Z,11.97
2019-04-27T10:35:08.956Z,11.98
2019-04-27T10:37:38.983Z,12.08
2019-04-27T10:40:09.000Z,12.21
2019-04-27T10:42:39.583Z,12.24
2019-04-27T10:45:11.323Z,12.19
2019-04-27T10:47:41.373Z,12.17
2019-04-27T10:50:11.406Z,12.18
2019-04-27T10:52:52.791Z,12.24
2019-04-27T10:55:13.465Z,12.21
2019-04-27T10:57:43.838Z,12.11
2019-04-27T11:00:16.681Z,12.09
2019-04-27T11:02:46.834Z,12.09
2019-04-27T11:05:35.924Z,12.01
2019-04-27T11:08:06.611Z,12.08
2019-04-27T11:10:36.823Z,12.07
2019-04-27T11:13:06.860Z,12.01
2019-04-27T11:15:37.142Z,11.93
2019-04-27T11:18:07.474Z,11.93
2019-04-27T11:20:37.462Z,11.96
2019-04-27T11:23:12.305Z,11.87
2019-04-27T11:25:40.855Z,11.75
2019-04-27T11:28:10.853Z,11.77
2019-04-27T11:30:40.824Z,11.79
2019-04-27T11:33:10.813Z,11.83
2019-04-27T11:35:47.253Z,11.91
2019-04-27T11:38:17.286Z,11.95
2019-04-27T11:40:48.677Z,12.04
2019-04-27T11:43:18.641Z,12.14
2019-04-27T11:45:48.871Z,12.22
2019-04-27T11:48:20.404Z,12.25
2019-04-27T11:50:50.438Z,12.27
2019-04-27T11:53:23.109Z,12.32
2019-04-27T11:55:52.362Z,12.26
2019-04-27T11:58:22.330Z,12.15
2019-04-27T12:00:52.351Z,12.21
2019-04-27T12:03:22.362Z,12.14
2019-04-27T12:05:52.661Z,12.06
2019-04-27T12:08:22.576Z,11.85
2019-04-27T12:10:52.495Z,11.82
2019-04-27T12:13:22.617Z,11.74
2019-04-27T12:15:53.120Z,11.80
2019-04-27T12:18:23.107Z,11.89
2019-04-27T12:20:53.491Z,11.98
2019-04-27T12:23:33.696Z,12.09
2019-04-27T12:25:56.345Z,12.21
2019-04-27T12:28:37.682Z,12.32
2019-04-27T12:31:30.396Z,12.41
2019-04-27T12:34:01.046Z,12.50
2019-04-27T12:36:31.250Z,12.58
2019-04-27T12:39:01.129Z,12.67
2019-04-27T12:41:32.732Z,12.74
2019-04-27T12:44:02.690Z,12.77
2019-04-27T12:46:32.759Z,12.71
2019-04-27T12:49:02.778Z,12.80
2019-04-27T12:51:37.301Z,12.81
2019-04-27T12:54:28.307Z,12.87
2019-04-27T12:57:36.416Z,13.06
2019-04-27T13:00:16.893Z,13.45
2019-04-27T13:02:46.949Z,13.83
2019-04-27T13:05:17.965Z,14.23
2019-04-27T13:07:48.307Z,14.52
2019-04-27T13:10:18.593Z,14.56
2019-04-27T13:12:49.094Z,14.67
2019-04-27T13:15:19.257Z,14.93
2019-04-27T13:17:49.183Z,15.24
2019-04-27T13:20:19.866Z,15.40
2019-04-27T13:22:49.804Z,15.68
2019-04-27T13:25:19.869Z,15.79
2019-04-27T13:27:51.216Z,15.98
2019-04-27T13:30:21.361Z,16.13
2019-04-27T13:32:51.444Z,16.24
2019-04-27T13:35:21.369Z,16.29
2019-04-27T13:37:52.892Z,16.45
2019-04-27T13:40:23.193Z,16.50
2019-04-27T13:43:07.874Z,16.52
2019-04-27T13:45:49.390Z,16.56
2019-04-27T13:48:41.209Z,16.47
2019-04-27T13:51:16.666Z,16.58
2019-04-27T13:53:46.509Z,16.32
2019-04-27T13:56:17.504Z,16.00
2019-04-27T13:58:47.636Z,15.70
2019-04-27T14:01:17.615Z,15.45
2019-04-27T14:03:47.588Z,15.14
2019-04-27T14:06:17.534Z,15.11
2019-04-27T14:08:47.507Z,14.91
2019-04-27T14:11:18.353Z,14.83
2019-04-27T14:13:49.661Z,14.66
2019-04-27T14:16:19.573Z,14.55
2019-04-27T14:18:49.862Z,14.36
2019-04-27T14:21:21.193Z,14.20
2019-04-27T14:23:51.587Z,14.23
2019-04-27T14:26:21.837Z,14.53
2019-04-27T14:28:52.048Z,14.93
2019-04-27T14:31:22.357Z,15.16
2019-04-27T14:33:52.925Z,15.38
2019-04-27T14:36:22.971Z,15.55
2019-04-27T14:38:52.960Z,15.69
2019-04-27T14:41:23.004Z,15.64
2019-04-27T14:44:05.217Z,15.81
2019-04-27T14:46:24.992Z,15.89
2019-04-27T14:48:55.068Z,15.95
2019-04-27T14:51:26.832Z,16.05
2019-04-27T14:53:58.813Z,16.11
2019-04-27T14:56:28.875Z,16.06
2019-04-27T14:58:58.850Z,15.91
2019-04-27T15:01:29.079Z,15.72
2019-04-27T15:03:58.968Z,15.70
2019-04-27T15:06:30.218Z,15.73
2019-04-27T15:09:00.454Z,15.87
2019-04-27T15:11:32.109Z,15.75
2019-04-27T15:14:04.289Z,15.57
2019-04-27T15:16:37.829Z,15.33
2019-04-27T15:19:13.296Z,15.35
2019-04-27T15:21:55.779Z,15.46
2019-04-27T15:24:13.863Z,15.56
2019-04-27T15:26:46.905Z,15.48
2019-04-27T15:29:20.609Z,15.62
2019-04-27T15:32:01.313Z,15.69
2019-04-27T15:34:45.524Z,15.80
2019-04-27T15:37:39.235Z,15.81
2019-04-27T15:40:34.510Z,15.74
2019-04-27T15:43:12.160Z,15.38
2019-04-27T15:45:42.003Z,15.14
2019-04-27T15:48:11.893Z,15.22
2019-04-27T15:50:41.862Z,15.10
2019-04-27T15:53:12.633Z,15.16
2019-04-27T15:55:42.773Z,15.22
2019-04-27T15:58:13.030Z,15.45
2019-04-27T16:00:42.993Z,15.66
2019-04-27T16:03:12.949Z,15.69
2019-04-27T16:05:42.971Z,15.81
2019-04-27T16:08:15.670Z,15.70
2019-04-27T16:10:45.287Z,15.57
2019-04-27T16:13:15.414Z,15.58
2019-04-27T16:15:48.172Z,15.47
2019-04-27T16:18:18.635Z,15.49
2019-04-27T16:20:50.168Z,15.24
2019-04-27T16:23:20.059Z,14.84
2019-04-27T16:25:51.507Z,14.64
2019-04-27T16:28:21.461Z,14.38
2019-04-27T16:30:53.854Z,14.15
2019-04-27T16:33:24.459Z,14.19
2019-04-27T16:36:00.282Z,14.09
2019-04-27T16:38:34.874Z,13.98
2019-04-27T16:41:04.897Z,13.91
2019-04-27T16:43:34.685Z,13.95
2019-04-27T16:46:05.624Z,13.87
2019-04-27T16:48:36.366Z,13.74
2019-04-27T16:51:06.642Z,13.55
2019-04-27T16:53:39.803Z,13.36
2019-04-27T16:56:15.163Z,13.11
2019-04-27T16:58:41.551Z,12.96
2019-04-27T17:01:20.324Z,12.82
2019-04-27T17:03:50.254Z,12.87
2019-04-27T17:06:21.370Z,12.90
2019-04-27T17:08:51.582Z,12.97
2019-04-27T17:11:21.671Z,13.14
2019-04-27T17:14:01.708Z,13.29
2019-04-27T17:17:11.911Z,13.49
2019-04-27T17:19:53.514Z,13.67
2019-04-27T17:22:23.370Z,13.85
2019-04-27T17:24:53.559Z,14.04
2019-04-27T17:27:32.244Z,14.05
2019-04-27T17:30:02.132Z,14.09
2019-04-27T17:32:45.606Z,14.15
2019-04-27T17:35:15.758Z,14.09
2019-04-27T17:37:45.716Z,14.07
2019-04-27T17:40:15.977Z,14.03
2019-04-27T17:42:45.941Z,13.90
2019-04-27T17:45:15.872Z,13.83
2019-04-27T17:47:45.818Z,13.80
2019-04-27T17:50:18.456Z,13.75
2019-04-27T17:52:54.338Z,13.59
2019-04-27T17:55:24.072Z,13.52
2019-04-27T17:57:50.785Z,13.57
2019-04-27T18:00:20.934Z,13.60
2019-04-27T18:02:50.928Z,13.66
2019-04-27T18:05:20.857Z,13.71
2019-04-27T18:07:50.830Z,13.74
2019-04-27T18:10:24.138Z,13.71
2019-04-27T18:12:52.689Z,13.75
2019-04-27T18:15:22.625Z,13.75
2019-04-27T18:17:54.498Z,13.74
2019-04-27T18:20:25.641Z,13.57
2019-04-27T18:23:08.913Z,13.37
2019-04-27T18:25:44.572Z,13.36
2019-04-27T18:28:19.004Z,13.39
2019-04-27T18:31:03.080Z,13.26
2019-04-27T18:33:37.291Z,12.96
2019-04-27T18:36:07.279Z,12.82
2019-04-27T18:38:37.298Z,12.82
2019-04-27T18:41:11.738Z,12.75
2019-04-27T18:43:46.401Z,12.56
2019-04-27T18:46:14.919Z,12.40
2019-04-27T18:49:05.290Z,12.39
2019-04-27T18:51:48.352Z,12.38
2019-04-27T18:54:18.526Z,12.42
2019-04-27T18:57:01.463Z,12.54
2019-04-27T18:59:19.904Z,12.64
2019-04-27T19:01:49.882Z,12.68
2019-04-27T19:04:19.704Z,12.76
2019-04-27T19:06:49.563Z,12.82
2019-04-27T19:09:19.709Z,12.82
2019-04-27T19:11:56.255Z,12.82
2019-04-27T19:14:21.439Z,12.88
2019-04-27T19:16:51.749Z,12.96
2019-04-27T19:19:23.190Z,13.02
2019-04-27T19:21:53.353Z,13.07
2019-04-27T19:24:23.303Z,13.12
2019-04-27T19:27:18.580Z,13.15
2019-04-27T19:29:51.738Z,13.19
2019-04-27T19:32:22.163Z,13.20
2019-04-27T19:34:52.112Z,13.23
2019-04-27T19:37:22.120Z,13.24
2019-04-27T19:39:52.419Z,13.23
2019-04-27T19:42:22.804Z,13.22
2019-04-27T19:44:52.972Z,13.23
2019-04-27T19:47:22.831Z,13.24
2019-04-27T19:49:52.806Z,13.27
2019-04-27T19:52:22.897Z,13.27
2019-04-27T19:54:52.850Z,13.26
2019-04-27T19:57:31.865Z,13.26
2019-04-27T19:59:58.849Z,13.29
2019-04-27T20:02:28.894Z,13.29
2019-04-27T20:05:03.316Z,13.28
2019-04-27T20:07:35.143Z,13.29
2019-04-27T20:10:08.745Z,13.27
2019-04-27T20:12:41.122Z,13.22
2019-04-27T20:15:11.385Z,13.21
2019-04-27T20:17:41.717Z,13.20
2019-04-27T20:20:11.802Z,13.18
2019-04-27T20:22:41.746Z,13.14
2019-04-27T20:25:11.735Z,13.10
2019-04-27T20:27:46.867Z,12.94
2019-04-27T20:30:14.054Z,13.00
2019-04-27T20:32:44.413Z,12.99
2019-04-27T20:35:14.364Z,13.05
2019-04-27T20:37:44.330Z,13.08
2019-04-27T20:40:14.449Z,13.10
2019-04-27T20:42:44.437Z,13.04
2019-04-27T20:45:14.572Z,12.99
2019-04-27T20:47:44.506Z,12.99
2019-04-27T20:50:14.535Z,12.92
2019-04-27T20:52:56.001Z,12.93
2019-04-27T20:55:25.932Z,12.90
2019-04-27T20:58:01.757Z,12.85
2019-04-27T21:00:27.800Z,12.78
2019-04-27T21:03:08.509Z,12.79
2019-04-27T21:05:56.029Z,12.75
2019-04-27T21:08:26.074Z,12.78
2019-04-27T21:10:56.327Z,12.82
2019-04-27T21:13:26.268Z,12.76
2019-04-27T21:15:56.544Z,12.80
2019-04-27T21:18:26.476Z,12.80
2019-04-27T21:20:56.358Z,12.81
2019-04-27T21:23:26.451Z,12.76
2019-04-27T21:25:56.338Z,12.71
2019-04-27T21:28:27.378Z,12.75
2019-04-27T21:30:57.364Z,12.77
2019-04-27T21:33:27.229Z,12.62
2019-04-27T21:35:57.258Z,12.62
2019-04-27T21:38:27.219Z,12.53
2019-04-27T21:40:57.102Z,12.49
2019-04-27T21:43:27.071Z,12.47
2019-04-27T21:45:57.017Z,12.41
2019-04-27T21:48:26.914Z,12.41
2019-04-27T21:50:56.799Z,12.45
2019-04-27T21:53:58.104Z,12.45
2019-04-27T21:56:28.097Z,12.48
2019-04-27T21:58:58.837Z,12.53
2019-04-27T22:01:31.851Z,12.57
2019-04-27T22:04:04.105Z,12.57
2019-04-27T22:06:34.117Z,12.56
2019-04-27T22:09:08.267Z,12.55
2019-04-27T22:11:40.883Z,12.59
2019-04-27T22:14:11.671Z,12.50
2019-04-27T22:16:42.043Z,12.54
2019-04-27T22:19:12.163Z,12.58
2019-04-27T22:21:43.268Z,12.64
2019-04-27T22:24:24.443Z,12.63
2019-04-27T22:26:55.082Z,12.61
2019-04-27T22:29:25.051Z,12.61
2019-04-27T22:31:55.069Z,12.61
2019-04-27T22:34:25.077Z,12.52
2019-04-27T22:36:55.015Z,12.54
2019-04-27T22:39:31.001Z,12.47
2019-04-27T22:42:18.646Z,12.48
2019-04-27T22:44:55.460Z,12.53
2019-04-27T22:47:25.758Z,12.55
2019-04-27T22:49:55.988Z,12.60
2019-04-27T22:52:26.277Z,12.62
2019-04-27T22:54:56.388Z,12.60
2019-04-27T22:57:39.085Z,12.57
2019-04-27T23:00:27.884Z,12.60
2019-04-27T23:03:00.828Z,12.63
2019-04-27T23:05:32.086Z,12.63
2019-04-27T23:08:02.090Z,12.64
2019-04-27T23:10:32.557Z,12.67
2019-04-27T23:13:02.818Z,12.72
2019-04-27T23:15:38.905Z,12.74
2019-04-27T23:18:08.953Z,12.74
2019-04-27T23:20:40.774Z,12.73
2019-04-27T23:23:11.476Z,12.66
2019-04-27T23:25:42.741Z,12.49
2019-04-27T23:28:12.815Z,12.50
2019-04-27T23:31:17.221Z,12.55
2019-04-27T23:33:48.629Z,12.62
2019-04-27T23:36:19.092Z,12.69
2019-04-27T23:38:50.870Z,12.62
2019-04-27T23:41:20.894Z,12.54
2019-04-27T23:43:50.897Z,12.56
2019-04-27T23:46:21.482Z,12.59
2019-04-27T23:48:53.911Z,12.62
2019-04-27T23:51:42.976Z,12.62
2019-04-27T23:54:12.954Z,12.67
2019-04-27T23:56:42.988Z,12.57
2019-04-27T23:59:24.228Z,12.56
